sensor_id;sensor_type;location;lat;lon;timestamp;P1;durP1;ratioP1;P2;durP2;ratioP2
76714;SDS011;65644;44.990;20.288;2023-02-21T00:02:13;34.20;;;22.07;;
76714;SDS011;65644;44.990;20.288;2023-02-21T00:04:58;32.55;;;21.05;;
76714;SDS011;65644;44.990;20.288;2023-02-21T00:07:42;28.50;;;20.53;;
76714;SDS011;65644;44.990;20.288;2023-02-21T00:10:27;29.92;;;19.58;;
76714;SDS011;65644;44.990;20.288;2023-02-21T00:13:12;29.40;;;20.03;;
76714;SDS011;65644;44.990;20.288;2023-02-21T00:15:56;28.07;;;19.60;;
76714;SDS011;65644;44.990;20.288;2023-02-21T00:18:41;27.60;;;19.95;;
76714;SDS011;65644;44.990;20.288;2023-02-21T00:21:26;30.57;;;20.57;;
76714;SDS011;65644;44.990;20.288;2023-02-21T00:26:56;41.05;;;22.45;;
76714;SDS011;65644;44.990;20.288;2023-02-21T00:29:41;37.15;;;23.73;;
76714;SDS011;65644;44.990;20.288;2023-02-21T00:32:25;47.50;;;25.50;;
76714;SDS011;65644;44.990;20.288;2023-02-21T00:35:10;33.95;;;20.00;;
76714;SDS011;65644;44.990;20.288;2023-02-21T00:37:55;30.52;;;19.05;;
76714;SDS011;65644;44.990;20.288;2023-02-21T00:40:40;29.20;;;19.15;;
76714;SDS011;65644;44.990;20.288;2023-02-21T00:43:32;28.93;;;18.97;;
76714;SDS011;65644;44.990;20.288;2023-02-21T00:46:17;29.13;;;18.73;;
76714;SDS011;65644;44.990;20.288;2023-02-21T00:49:02;26.83;;;18.40;;
76714;SDS011;65644;44.990;20.288;2023-02-21T00:51:47;29.33;;;17.80;;
76714;SDS011;65644;44.990;20.288;2023-02-21T00:54:31;29.45;;;19.25;;
76714;SDS011;65644;44.990;20.288;2023-02-21T00:57:16;29.50;;;19.40;;
76714;SDS011;65644;44.990;20.288;2023-02-21T01:00:01;31.48;;;20.45;;
76714;SDS011;65644;44.990;20.288;2023-02-21T01:02:46;32.88;;;21.05;;
76714;SDS011;65644;44.990;20.288;2023-02-21T01:05:31;41.15;;;24.73;;
76714;SDS011;65644;44.990;20.288;2023-02-21T01:08:15;35.85;;;25.10;;
76714;SDS011;65644;44.990;20.288;2023-02-21T01:11:00;52.38;;;29.15;;
76714;SDS011;65644;44.990;20.288;2023-02-21T01:13:45;57.17;;;31.57;;
76714;SDS011;65644;44.990;20.288;2023-02-21T01:16:29;48.53;;;28.40;;
76714;SDS011;65644;44.990;20.288;2023-02-21T01:19:15;49.72;;;28.83;;
76714;SDS011;65644;44.990;20.288;2023-02-21T01:21:59;55.43;;;30.07;;
76714;SDS011;65644;44.990;20.288;2023-02-21T01:24:47;53.47;;;31.30;;
76714;SDS011;65644;44.990;20.288;2023-02-21T01:27:31;54.45;;;31.60;;
76714;SDS011;65644;44.990;20.288;2023-02-21T01:30:16;61.97;;;32.80;;
76714;SDS011;65644;44.990;20.288;2023-02-21T01:33:01;56.67;;;33.42;;
76714;SDS011;65644;44.990;20.288;2023-02-21T01:35:46;57.03;;;33.05;;
76714;SDS011;65644;44.990;20.288;2023-02-21T01:38:36;63.70;;;32.97;;
76714;SDS011;65644;44.990;20.288;2023-02-21T01:41:20;73.55;;;36.40;;
76714;SDS011;65644;44.990;20.288;2023-02-21T01:44:20;63.95;;;34.67;;
76714;SDS011;65644;44.990;20.288;2023-02-21T01:47:10;53.78;;;30.45;;
76714;SDS011;65644;44.990;20.288;2023-02-21T01:52:40;64.10;;;33.63;;
76714;SDS011;65644;44.990;20.288;2023-02-21T01:55:25;62.22;;;33.78;;
76714;SDS011;65644;44.990;20.288;2023-02-21T01:58:10;61.30;;;34.20;;
76714;SDS011;65644;44.990;20.288;2023-02-21T02:00:54;61.00;;;35.00;;
76714;SDS011;65644;44.990;20.288;2023-02-21T02:03:39;70.40;;;37.67;;
76714;SDS011;65644;44.990;20.288;2023-02-21T02:06:24;71.57;;;36.53;;
76714;SDS011;65644;44.990;20.288;2023-02-21T02:09:19;52.60;;;30.98;;
76714;SDS011;65644;44.990;20.288;2023-02-21T02:17:28;60.72;;;32.95;;
76714;SDS011;65644;44.990;20.288;2023-02-21T02:27:36;44.22;;;27.20;;
76714;SDS011;65644;44.990;20.288;2023-02-21T02:30:15;44.85;;;30.73;;
76714;SDS011;65644;44.990;20.288;2023-02-21T02:35:12;46.63;;;29.63;;
76714;SDS011;65644;44.990;20.288;2023-02-21T02:42:42;50.25;;;31.65;;
76714;SDS011;65644;44.990;20.288;2023-02-21T02:47:38;52.05;;;31.17;;
76714;SDS011;65644;44.990;20.288;2023-02-21T02:50:07;50.92;;;30.30;;
76714;SDS011;65644;44.990;20.288;2023-02-21T02:52:34;51.50;;;29.58;;
76714;SDS011;65644;44.990;20.288;2023-02-21T02:55:05;46.03;;;29.25;;
76714;SDS011;65644;44.990;20.288;2023-02-21T02:57:45;44.20;;;28.80;;
76714;SDS011;65644;44.990;20.288;2023-02-21T03:00:13;47.92;;;30.00;;
76714;SDS011;65644;44.990;20.288;2023-02-21T03:02:46;44.00;;;28.33;;
76714;SDS011;65644;44.990;20.288;2023-02-21T03:10:26;48.53;;;29.70;;
76714;SDS011;65644;44.990;20.288;2023-02-21T03:13:08;46.83;;;29.20;;
76714;SDS011;65644;44.990;20.288;2023-02-21T03:15:39;45.90;;;28.05;;
76714;SDS011;65644;44.990;20.288;2023-02-21T03:18:12;46.63;;;28.35;;
76714;SDS011;65644;44.990;20.288;2023-02-21T03:20:41;47.70;;;28.33;;
76714;SDS011;65644;44.990;20.288;2023-02-21T03:23:08;45.58;;;28.45;;
76714;SDS011;65644;44.990;20.288;2023-02-21T03:25:35;45.67;;;28.15;;
76714;SDS011;65644;44.990;20.288;2023-02-21T03:28:03;47.55;;;28.52;;
76714;SDS011;65644;44.990;20.288;2023-02-21T03:30:29;48.40;;;28.05;;
76714;SDS011;65644;44.990;20.288;2023-02-21T03:32:55;44.92;;;27.80;;
76714;SDS011;65644;44.990;20.288;2023-02-21T03:35:22;45.75;;;28.83;;
76714;SDS011;65644;44.990;20.288;2023-02-21T03:37:48;48.42;;;29.05;;
76714;SDS011;65644;44.990;20.288;2023-02-21T03:42:42;47.58;;;29.42;;
76714;SDS011;65644;44.990;20.288;2023-02-21T03:45:09;46.85;;;29.10;;
76714;SDS011;65644;44.990;20.288;2023-02-21T03:47:35;48.03;;;29.20;;
76714;SDS011;65644;44.990;20.288;2023-02-21T03:50:01;43.58;;;29.05;;
76714;SDS011;65644;44.990;20.288;2023-02-21T03:52:29;43.15;;;28.33;;
76714;SDS011;65644;44.990;20.288;2023-02-21T03:54:55;41.42;;;27.73;;
76714;SDS011;65644;44.990;20.288;2023-02-21T03:57:21;47.13;;;28.45;;
76714;SDS011;65644;44.990;20.288;2023-02-21T03:59:47;42.15;;;27.65;;
76714;SDS011;65644;44.990;20.288;2023-02-21T04:02:13;48.95;;;29.08;;
76714;SDS011;65644;44.990;20.288;2023-02-21T04:04:39;46.83;;;28.38;;
76714;SDS011;65644;44.990;20.288;2023-02-21T04:07:05;42.92;;;29.10;;
76714;SDS011;65644;44.990;20.288;2023-02-21T04:09:31;42.60;;;25.75;;
76714;SDS011;65644;44.990;20.288;2023-02-21T04:11:57;41.90;;;26.83;;
76714;SDS011;65644;44.990;20.288;2023-02-21T04:14:23;45.42;;;27.67;;
76714;SDS011;65644;44.990;20.288;2023-02-21T04:16:49;38.75;;;26.50;;
76714;SDS011;65644;44.990;20.288;2023-02-21T04:19:15;43.28;;;26.15;;
76714;SDS011;65644;44.990;20.288;2023-02-21T04:21:41;45.50;;;27.98;;
76714;SDS011;65644;44.990;20.288;2023-02-21T04:24:07;42.70;;;27.48;;
76714;SDS011;65644;44.990;20.288;2023-02-21T04:26:33;39.55;;;27.08;;
76714;SDS011;65644;44.990;20.288;2023-02-21T04:29:00;41.85;;;27.13;;
76714;SDS011;65644;44.990;20.288;2023-02-21T04:31:26;43.78;;;27.40;;
76714;SDS011;65644;44.990;20.288;2023-02-21T04:33:52;42.60;;;28.15;;
76714;SDS011;65644;44.990;20.288;2023-02-21T04:36:18;39.28;;;27.33;;
76714;SDS011;65644;44.990;20.288;2023-02-21T04:38:44;46.03;;;27.92;;
76714;SDS011;65644;44.990;20.288;2023-02-21T04:41:10;49.28;;;30.30;;
76714;SDS011;65644;44.990;20.288;2023-02-21T04:43:36;50.63;;;28.55;;
76714;SDS011;65644;44.990;20.288;2023-02-21T04:46:02;44.00;;;28.20;;
76714;SDS011;65644;44.990;20.288;2023-02-21T04:48:28;42.38;;;28.08;;
76714;SDS011;65644;44.990;20.288;2023-02-21T04:50:54;44.22;;;28.42;;
76714;SDS011;65644;44.990;20.288;2023-02-21T04:53:20;46.67;;;29.02;;
76714;SDS011;65644;44.990;20.288;2023-02-21T04:55:46;47.78;;;28.25;;
76714;SDS011;65644;44.990;20.288;2023-02-21T04:58:13;44.57;;;27.93;;
76714;SDS011;65644;44.990;20.288;2023-02-21T05:00:39;41.73;;;27.20;;
76714;SDS011;65644;44.990;20.288;2023-02-21T05:03:05;50.87;;;28.37;;
76714;SDS011;65644;44.990;20.288;2023-02-21T05:05:31;43.70;;;28.58;;
76714;SDS011;65644;44.990;20.288;2023-02-21T05:07:57;45.85;;;28.17;;
76714;SDS011;65644;44.990;20.288;2023-02-21T05:10:23;40.83;;;26.73;;
76714;SDS011;65644;44.990;20.288;2023-02-21T05:12:49;48.00;;;28.83;;
76714;SDS011;65644;44.990;20.288;2023-02-21T05:15:15;45.93;;;29.37;;
76714;SDS011;65644;44.990;20.288;2023-02-21T05:17:41;46.90;;;28.70;;
76714;SDS011;65644;44.990;20.288;2023-02-21T05:20:07;42.87;;;29.23;;
76714;SDS011;65644;44.990;20.288;2023-02-21T05:22:36;46.30;;;28.60;;
76714;SDS011;65644;44.990;20.288;2023-02-21T05:25:04;49.05;;;30.52;;
76714;SDS011;65644;44.990;20.288;2023-02-21T05:27:30;58.07;;;29.73;;
76714;SDS011;65644;44.990;20.288;2023-02-21T05:29:56;57.53;;;31.20;;
76714;SDS011;65644;44.990;20.288;2023-02-21T05:32:22;55.07;;;30.10;;
76714;SDS011;65644;44.990;20.288;2023-02-21T05:34:48;55.70;;;31.60;;
76714;SDS011;65644;44.990;20.288;2023-02-21T05:37:16;45.20;;;29.60;;
76714;SDS011;65644;44.990;20.288;2023-02-21T05:39:45;53.57;;;31.53;;
76714;SDS011;65644;44.990;20.288;2023-02-21T05:42:11;54.43;;;33.03;;
76714;SDS011;65644;44.990;20.288;2023-02-21T05:44:37;58.67;;;35.90;;
76714;SDS011;65644;44.990;20.288;2023-02-21T05:47:03;53.63;;;32.83;;
76714;SDS011;65644;44.990;20.288;2023-02-21T05:49:31;51.10;;;34.67;;
76714;SDS011;65644;44.990;20.288;2023-02-21T05:51:57;57.20;;;33.60;;
76714;SDS011;65644;44.990;20.288;2023-02-21T05:54:23;53.80;;;33.43;;
76714;SDS011;65644;44.990;20.288;2023-02-21T05:56:50;58.87;;;35.67;;
76714;SDS011;65644;44.990;20.288;2023-02-21T05:59:17;48.07;;;32.17;;
76714;SDS011;65644;44.990;20.288;2023-02-21T06:01:43;51.43;;;32.60;;
76714;SDS011;65644;44.990;20.288;2023-02-21T06:04:09;50.78;;;32.47;;
76714;SDS011;65644;44.990;20.288;2023-02-21T06:06:35;46.17;;;30.40;;
76714;SDS011;65644;44.990;20.288;2023-02-21T06:09:02;50.03;;;31.00;;
76714;SDS011;65644;44.990;20.288;2023-02-21T06:11:29;51.17;;;32.63;;
76714;SDS011;65644;44.990;20.288;2023-02-21T06:13:57;55.05;;;32.20;;
76714;SDS011;65644;44.990;20.288;2023-02-21T06:16:24;44.35;;;29.38;;
76714;SDS011;65644;44.990;20.288;2023-02-21T06:18:53;49.42;;;30.58;;
76714;SDS011;65644;44.990;20.288;2023-02-21T06:21:20;51.00;;;29.85;;
76714;SDS011;65644;44.990;20.288;2023-02-21T06:23:46;54.72;;;31.20;;
76714;SDS011;65644;44.990;20.288;2023-02-21T06:26:12;55.22;;;29.70;;
76714;SDS011;65644;44.990;20.288;2023-02-21T06:28:38;45.55;;;28.92;;
76714;SDS011;65644;44.990;20.288;2023-02-21T06:31:04;47.20;;;29.65;;
76714;SDS011;65644;44.990;20.288;2023-02-21T06:33:30;46.88;;;28.02;;
76714;SDS011;65644;44.990;20.288;2023-02-21T06:35:56;52.25;;;29.65;;
76714;SDS011;65644;44.990;20.288;2023-02-21T06:38:22;53.33;;;29.45;;
76714;SDS011;65644;44.990;20.288;2023-02-21T06:40:49;50.10;;;28.45;;
76714;SDS011;65644;44.990;20.288;2023-02-21T06:43:15;43.13;;;25.67;;
76714;SDS011;65644;44.990;20.288;2023-02-21T06:45:41;48.63;;;27.60;;
76714;SDS011;65644;44.990;20.288;2023-02-21T06:48:07;50.10;;;34.03;;
76714;SDS011;65644;44.990;20.288;2023-02-21T06:50:33;55.70;;;29.42;;
76714;SDS011;65644;44.990;20.288;2023-02-21T06:52:59;47.85;;;29.10;;
76714;SDS011;65644;44.990;20.288;2023-02-21T06:55:25;42.20;;;24.38;;
76714;SDS011;65644;44.990;20.288;2023-02-21T06:57:51;45.38;;;26.50;;
76714;SDS011;65644;44.990;20.288;2023-02-21T07:00:17;49.53;;;27.27;;
76714;SDS011;65644;44.990;20.288;2023-02-21T07:02:43;69.25;;;38.58;;
76714;SDS011;65644;44.990;20.288;2023-02-21T07:05:09;85.53;;;48.47;;
76714;SDS011;65644;44.990;20.288;2023-02-21T07:07:35;70.20;;;41.42;;
76714;SDS011;65644;44.990;20.288;2023-02-21T07:10:02;52.35;;;32.80;;
76714;SDS011;65644;44.990;20.288;2023-02-21T07:12:28;44.45;;;26.30;;
76714;SDS011;65644;44.990;20.288;2023-02-21T07:14:54;40.13;;;24.30;;
76714;SDS011;65644;44.990;20.288;2023-02-21T07:17:20;34.75;;;22.08;;
76714;SDS011;65644;44.990;20.288;2023-02-21T07:19:46;39.55;;;24.42;;
76714;SDS011;65644;44.990;20.288;2023-02-21T07:22:12;43.03;;;26.10;;
76714;SDS011;65644;44.990;20.288;2023-02-21T07:24:38;38.67;;;25.70;;
76714;SDS011;65644;44.990;20.288;2023-02-21T07:27:05;38.92;;;26.63;;
76714;SDS011;65644;44.990;20.288;2023-02-21T07:29:31;35.33;;;24.10;;
76714;SDS011;65644;44.990;20.288;2023-02-21T07:31:57;45.55;;;23.95;;
76714;SDS011;65644;44.990;20.288;2023-02-21T07:34:23;44.25;;;23.27;;
76714;SDS011;65644;44.990;20.288;2023-02-21T07:36:49;30.98;;;20.63;;
76714;SDS011;65644;44.990;20.288;2023-02-21T07:39:16;36.05;;;20.50;;
76714;SDS011;65644;44.990;20.288;2023-02-21T07:41:42;30.95;;;20.27;;
76714;SDS011;65644;44.990;20.288;2023-02-21T07:44:08;30.30;;;21.85;;
76714;SDS011;65644;44.990;20.288;2023-02-21T07:46:34;33.25;;;20.90;;
76714;SDS011;65644;44.990;20.288;2023-02-21T07:49:00;28.60;;;20.38;;
76714;SDS011;65644;44.990;20.288;2023-02-21T07:51:27;26.80;;;19.17;;
76714;SDS011;65644;44.990;20.288;2023-02-21T07:53:53;27.88;;;19.67;;
76714;SDS011;65644;44.990;20.288;2023-02-21T07:56:19;46.17;;;25.15;;
76714;SDS011;65644;44.990;20.288;2023-02-21T07:58:45;45.20;;;28.30;;
76714;SDS011;65644;44.990;20.288;2023-02-21T08:01:12;47.83;;;31.60;;
76714;SDS011;65644;44.990;20.288;2023-02-21T08:03:38;37.30;;;23.15;;
76714;SDS011;65644;44.990;20.288;2023-02-21T08:06:05;27.55;;;21.10;;
76714;SDS011;65644;44.990;20.288;2023-02-21T08:08:31;28.45;;;19.33;;
76714;SDS011;65644;44.990;20.288;2023-02-21T08:10:57;22.75;;;16.77;;
76714;SDS011;65644;44.990;20.288;2023-02-21T08:13:23;25.90;;;17.13;;
76714;SDS011;65644;44.990;20.288;2023-02-21T08:15:49;23.58;;;16.27;;
76714;SDS011;65644;44.990;20.288;2023-02-21T08:18:16;22.33;;;14.48;;
76714;SDS011;65644;44.990;20.288;2023-02-21T08:20:44;24.55;;;17.70;;
76714;SDS011;65644;44.990;20.288;2023-02-21T08:23:10;24.35;;;17.48;;
76714;SDS011;65644;44.990;20.288;2023-02-21T08:25:36;25.63;;;18.02;;
76714;SDS011;65644;44.990;20.288;2023-02-21T08:28:02;26.25;;;18.48;;
76714;SDS011;65644;44.990;20.288;2023-02-21T08:30:28;33.20;;;20.58;;
76714;SDS011;65644;44.990;20.288;2023-02-21T08:32:54;30.40;;;17.58;;
76714;SDS011;65644;44.990;20.288;2023-02-21T08:35:21;28.45;;;17.35;;
76714;SDS011;65644;44.990;20.288;2023-02-21T08:37:47;32.30;;;16.40;;
76714;SDS011;65644;44.990;20.288;2023-02-21T08:40:14;19.40;;;12.52;;
76714;SDS011;65644;44.990;20.288;2023-02-21T08:42:40;21.00;;;13.15;;
76714;SDS011;65644;44.990;20.288;2023-02-21T08:45:07;17.67;;;12.60;;
76714;SDS011;65644;44.990;20.288;2023-02-21T08:47:34;23.65;;;14.43;;
76714;SDS011;65644;44.990;20.288;2023-02-21T08:50:01;21.52;;;14.70;;
76714;SDS011;65644;44.990;20.288;2023-02-21T08:52:27;19.23;;;13.52;;
76714;SDS011;65644;44.990;20.288;2023-02-21T08:54:53;18.13;;;13.65;;
76714;SDS011;65644;44.990;20.288;2023-02-21T08:57:19;20.20;;;13.75;;
76714;SDS011;65644;44.990;20.288;2023-02-21T08:59:45;21.25;;;14.02;;
76714;SDS011;65644;44.990;20.288;2023-02-21T09:02:15;19.70;;;13.90;;
76714;SDS011;65644;44.990;20.288;2023-02-21T09:04:41;20.60;;;15.32;;
76714;SDS011;65644;44.990;20.288;2023-02-21T09:07:07;23.20;;;15.70;;
76714;SDS011;65644;44.990;20.288;2023-02-21T09:09:36;20.88;;;15.15;;
76714;SDS011;65644;44.990;20.288;2023-02-21T09:12:02;18.77;;;14.00;;
76714;SDS011;65644;44.990;20.288;2023-02-21T09:14:32;19.15;;;15.30;;
76714;SDS011;65644;44.990;20.288;2023-02-21T09:16:58;21.23;;;15.15;;
76714;SDS011;65644;44.990;20.288;2023-02-21T09:19:24;18.58;;;15.20;;
76714;SDS011;65644;44.990;20.288;2023-02-21T09:21:51;20.73;;;15.57;;
76714;SDS011;65644;44.990;20.288;2023-02-21T09:24:21;23.73;;;15.98;;
76714;SDS011;65644;44.990;20.288;2023-02-21T09:26:50;22.73;;;16.58;;
76714;SDS011;65644;44.990;20.288;2023-02-21T09:29:18;21.02;;;15.98;;
76714;SDS011;65644;44.990;20.288;2023-02-21T09:31:44;22.67;;;16.45;;
76714;SDS011;65644;44.990;20.288;2023-02-21T09:34:10;22.75;;;16.40;;
76714;SDS011;65644;44.990;20.288;2023-02-21T09:36:37;25.52;;;16.58;;
76714;SDS011;65644;44.990;20.288;2023-02-21T09:39:03;23.67;;;16.70;;
76714;SDS011;65644;44.990;20.288;2023-02-21T09:41:31;20.40;;;14.93;;
76714;SDS011;65644;44.990;20.288;2023-02-21T09:43:57;19.45;;;14.82;;
76714;SDS011;65644;44.990;20.288;2023-02-21T09:46:35;14.88;;;11.27;;
76714;SDS011;65644;44.990;20.288;2023-02-21T09:49:04;14.15;;;10.05;;
76714;SDS011;65644;44.990;20.288;2023-02-21T09:51:31;13.05;;;8.32;;
76714;SDS011;65644;44.990;20.288;2023-02-21T09:53:58;11.13;;;9.15;;
76714;SDS011;65644;44.990;20.288;2023-02-21T09:56:28;10.90;;;8.52;;
76714;SDS011;65644;44.990;20.288;2023-02-21T09:58:58;13.38;;;9.50;;
76714;SDS011;65644;44.990;20.288;2023-02-21T10:14:05;6.95;;;6.05;;
76714;SDS011;65644;44.990;20.288;2023-02-21T10:16:39;8.10;;;5.38;;
76714;SDS011;65644;44.990;20.288;2023-02-21T10:19:15;2.97;;;2.47;;
76714;SDS011;65644;44.990;20.288;2023-02-21T10:24:11;3.88;;;2.85;;
76714;SDS011;65644;44.990;20.288;2023-02-21T10:26:38;4.15;;;2.95;;
76714;SDS011;65644;44.990;20.288;2023-02-21T10:29:13;4.05;;;3.33;;
76714;SDS011;65644;44.990;20.288;2023-02-21T10:31:42;3.50;;;3.20;;
76714;SDS011;65644;44.990;20.288;2023-02-21T10:34:15;3.53;;;3.20;;
76714;SDS011;65644;44.990;20.288;2023-02-21T10:36:43;3.47;;;3.17;;
76714;SDS011;65644;44.990;20.288;2023-02-21T10:39:10;3.50;;;3.00;;
76714;SDS011;65644;44.990;20.288;2023-02-21T10:41:38;4.28;;;3.30;;
76714;SDS011;65644;44.990;20.288;2023-02-21T10:44:21;4.88;;;2.90;;
76714;SDS011;65644;44.990;20.288;2023-02-21T10:46:53;11.63;;;4.35;;
76714;SDS011;65644;44.990;20.288;2023-02-21T10:51:47;4.38;;;3.15;;
76714;SDS011;65644;44.990;20.288;2023-02-21T10:54:27;2.83;;;2.40;;
76714;SDS011;65644;44.990;20.288;2023-02-21T10:56:53;6.18;;;3.75;;
76714;SDS011;65644;44.990;20.288;2023-02-21T10:59:26;9.10;;;5.90;;
76714;SDS011;65644;44.990;20.288;2023-02-21T11:01:53;8.80;;;5.63;;
76714;SDS011;65644;44.990;20.288;2023-02-21T11:06:49;5.00;;;3.45;;
76714;SDS011;65644;44.990;20.288;2023-02-21T11:14:27;6.20;;;3.63;;
76714;SDS011;65644;44.990;20.288;2023-02-21T11:22:07;4.93;;;3.75;;
76714;SDS011;65644;44.990;20.288;2023-02-21T11:24:42;4.40;;;2.90;;
76714;SDS011;65644;44.990;20.288;2023-02-21T11:27:09;4.35;;;2.72;;
76714;SDS011;65644;44.990;20.288;2023-02-21T11:29:36;9.10;;;3.13;;
76714;SDS011;65644;44.990;20.288;2023-02-21T11:32:18;3.78;;;3.10;;
76714;SDS011;65644;44.990;20.288;2023-02-21T11:34:45;5.30;;;4.05;;
76714;SDS011;65644;44.990;20.288;2023-02-21T11:37:12;12.20;;;7.82;;
76714;SDS011;65644;44.990;20.288;2023-02-21T11:39:39;6.93;;;3.13;;
76714;SDS011;65644;44.990;20.288;2023-02-21T11:42:26;21.13;;;12.68;;
76714;SDS011;65644;44.990;20.288;2023-02-21T11:47:40;9.68;;;3.97;;
76714;SDS011;65644;44.990;20.288;2023-02-21T11:50:17;9.27;;;5.55;;
76714;SDS011;65644;44.990;20.288;2023-02-21T11:52:58;6.38;;;3.80;;
76714;SDS011;65644;44.990;20.288;2023-02-21T11:55:25;5.93;;;2.67;;
76714;SDS011;65644;44.990;20.288;2023-02-21T12:15:25;4.57;;;1.83;;
76714;SDS011;65644;44.990;20.288;2023-02-21T12:38:58;9.60;;;5.32;;
76714;SDS011;65644;44.990;20.288;2023-02-21T12:46:38;8.57;;;1.63;;
76714;SDS011;65644;44.990;20.288;2023-02-21T12:49:07;2.38;;;0.60;;
76714;SDS011;65644;44.990;20.288;2023-02-21T12:57:05;5.70;;;1.50;;
76714;SDS011;65644;44.990;20.288;2023-02-21T12:59:43;10.95;;;1.35;;
76714;SDS011;65644;44.990;20.288;2023-02-21T13:02:18;13.10;;;5.82;;
76714;SDS011;65644;44.990;20.288;2023-02-21T13:07:23;7.70;;;1.95;;
76714;SDS011;65644;44.990;20.288;2023-02-21T13:09:56;3.58;;;1.80;;
76714;SDS011;65644;44.990;20.288;2023-02-21T13:12:26;5.43;;;2.60;;
76714;SDS011;65644;44.990;20.288;2023-02-21T13:14:55;3.10;;;1.98;;
76714;SDS011;65644;44.990;20.288;2023-02-21T13:17:22;5.03;;;2.08;;
76714;SDS011;65644;44.990;20.288;2023-02-21T13:20:12;4.25;;;2.47;;
76714;SDS011;65644;44.990;20.288;2023-02-21T13:25:44;4.90;;;2.75;;
76714;SDS011;65644;44.990;20.288;2023-02-21T13:30:44;4.47;;;2.55;;
76714;SDS011;65644;44.990;20.288;2023-02-21T13:35:58;6.75;;;2.95;;
76714;SDS011;65644;44.990;20.288;2023-02-21T13:38:25;5.63;;;3.33;;
76714;SDS011;65644;44.990;20.288;2023-02-21T13:40:53;9.82;;;4.63;;
76714;SDS011;65644;44.990;20.288;2023-02-21T13:45:53;14.07;;;6.57;;
76714;SDS011;65644;44.990;20.288;2023-02-21T13:50:52;23.95;;;10.57;;
76714;SDS011;65644;44.990;20.288;2023-02-21T13:53:23;21.08;;;13.07;;
76714;SDS011;65644;44.990;20.288;2023-02-21T13:58:37;56.70;;;23.70;;
76714;SDS011;65644;44.990;20.288;2023-02-21T14:03:59;12.63;;;8.68;;
76714;SDS011;65644;44.990;20.288;2023-02-21T14:06:53;21.00;;;11.60;;
76714;SDS011;65644;44.990;20.288;2023-02-21T14:09:19;19.65;;;6.97;;
76714;SDS011;65644;44.990;20.288;2023-02-21T14:11:47;8.02;;;5.72;;
76714;SDS011;65644;44.990;20.288;2023-02-21T14:14:18;9.35;;;4.78;;
76714;SDS011;65644;44.990;20.288;2023-02-21T14:16:49;7.63;;;5.78;;
76714;SDS011;65644;44.990;20.288;2023-02-21T14:19:23;8.02;;;4.75;;
76714;SDS011;65644;44.990;20.288;2023-02-21T14:21:55;7.50;;;4.43;;
76714;SDS011;65644;44.990;20.288;2023-02-21T14:24:22;8.27;;;5.45;;
76714;SDS011;65644;44.990;20.288;2023-02-21T14:29:42;11.85;;;5.00;;
76714;SDS011;65644;44.990;20.288;2023-02-21T14:37:02;4.85;;;4.00;;
76714;SDS011;65644;44.990;20.288;2023-02-21T14:39:33;6.85;;;4.35;;
76714;SDS011;65644;44.990;20.288;2023-02-21T14:44:34;7.47;;;4.32;;
76714;SDS011;65644;44.990;20.288;2023-02-21T14:47:12;6.78;;;4.00;;
76714;SDS011;65644;44.990;20.288;2023-02-21T14:49:51;6.97;;;3.92;;
76714;SDS011;65644;44.990;20.288;2023-02-21T15:05:29;13.55;;;6.85;;
76714;SDS011;65644;44.990;20.288;2023-02-21T15:10:41;13.23;;;9.77;;
76714;SDS011;65644;44.990;20.288;2023-02-21T15:15:46;14.48;;;10.90;;
76714;SDS011;65644;44.990;20.288;2023-02-21T15:21:15;13.88;;;7.28;;
76714;SDS011;65644;44.990;20.288;2023-02-21T15:23:46;6.25;;;5.35;;
76714;SDS011;65644;44.990;20.288;2023-02-21T15:28:42;17.77;;;9.40;;
76714;SDS011;65644;44.990;20.288;2023-02-21T15:31:08;18.63;;;9.20;;
76714;SDS011;65644;44.990;20.288;2023-02-21T15:33:36;13.23;;;8.15;;
76714;SDS011;65644;44.990;20.288;2023-02-21T15:36:06;7.78;;;6.03;;
76714;SDS011;65644;44.990;20.288;2023-02-21T15:41:01;21.23;;;11.27;;
76714;SDS011;65644;44.990;20.288;2023-02-21T15:43:29;31.10;;;15.60;;
76714;SDS011;65644;44.990;20.288;2023-02-21T15:45:56;21.50;;;12.63;;
76714;SDS011;65644;44.990;20.288;2023-02-21T15:48:24;33.85;;;13.70;;
76714;SDS011;65644;44.990;20.288;2023-02-21T15:50:51;31.73;;;13.38;;
76714;SDS011;65644;44.990;20.288;2023-02-21T15:53:23;37.92;;;14.88;;
76714;SDS011;65644;44.990;20.288;2023-02-21T15:55:52;31.60;;;13.43;;
76714;SDS011;65644;44.990;20.288;2023-02-21T15:58:24;25.10;;;13.63;;
76714;SDS011;65644;44.990;20.288;2023-02-21T16:01:07;23.15;;;14.30;;
76714;SDS011;65644;44.990;20.288;2023-02-21T16:03:41;24.23;;;11.70;;
76714;SDS011;65644;44.990;20.288;2023-02-21T16:08:33;31.08;;;14.05;;
76714;SDS011;65644;44.990;20.288;2023-02-21T16:11:01;24.33;;;13.45;;
76714;SDS011;65644;44.990;20.288;2023-02-21T16:13:33;30.75;;;11.13;;
76714;SDS011;65644;44.990;20.288;2023-02-21T16:15:59;27.10;;;13.13;;
76714;SDS011;65644;44.990;20.288;2023-02-21T16:18:25;28.52;;;11.85;;
76714;SDS011;65644;44.990;20.288;2023-02-21T16:20:57;34.85;;;13.07;;
76714;SDS011;65644;44.990;20.288;2023-02-21T16:28:22;51.08;;;24.25;;
76714;SDS011;65644;44.990;20.288;2023-02-21T16:30:48;36.47;;;19.60;;
76714;SDS011;65644;44.990;20.288;2023-02-21T16:33:14;42.75;;;24.67;;
76714;SDS011;65644;44.990;20.288;2023-02-21T16:35:40;68.80;;;38.58;;
76714;SDS011;65644;44.990;20.288;2023-02-21T16:38:16;80.32;;;43.00;;
76714;SDS011;65644;44.990;20.288;2023-02-21T16:40:43;73.75;;;39.78;;
76714;SDS011;65644;44.990;20.288;2023-02-21T16:43:17;76.30;;;40.80;;
76714;SDS011;65644;44.990;20.288;2023-02-21T16:45:43;72.17;;;39.07;;
76714;SDS011;65644;44.990;20.288;2023-02-21T16:48:13;67.00;;;36.30;;
76714;SDS011;65644;44.990;20.288;2023-02-21T16:50:41;94.30;;;48.05;;
76714;SDS011;65644;44.990;20.288;2023-02-21T16:53:09;72.47;;;41.38;;
76714;SDS011;65644;44.990;20.288;2023-02-21T16:55:39;64.63;;;37.58;;
76714;SDS011;65644;44.990;20.288;2023-02-21T17:00:57;71.97;;;34.10;;
76714;SDS011;65644;44.990;20.288;2023-02-21T17:03:24;61.10;;;31.48;;
76714;SDS011;65644;44.990;20.288;2023-02-21T17:05:50;51.72;;;30.63;;
76714;SDS011;65644;44.990;20.288;2023-02-21T17:08:17;61.45;;;33.78;;
76714;SDS011;65644;44.990;20.288;2023-02-21T17:10:44;62.15;;;33.72;;
76714;SDS011;65644;44.990;20.288;2023-02-21T17:13:10;48.95;;;29.13;;
76714;SDS011;65644;44.990;20.288;2023-02-21T17:15:36;48.80;;;29.38;;
76714;SDS011;65644;44.990;20.288;2023-02-21T17:18:02;50.78;;;29.88;;
76714;SDS011;65644;44.990;20.288;2023-02-21T17:20:28;69.22;;;36.75;;
76714;SDS011;65644;44.990;20.288;2023-02-21T17:22:54;59.28;;;36.00;;
76714;SDS011;65644;44.990;20.288;2023-02-21T17:25:22;59.45;;;34.92;;
76714;SDS011;65644;44.990;20.288;2023-02-21T17:27:49;66.20;;;36.75;;
76714;SDS011;65644;44.990;20.288;2023-02-21T17:30:15;56.70;;;36.08;;
76714;SDS011;65644;44.990;20.288;2023-02-21T17:32:42;60.53;;;36.85;;
76714;SDS011;65644;44.990;20.288;2023-02-21T17:35:10;48.25;;;26.15;;
76714;SDS011;65644;44.990;20.288;2023-02-21T17:37:38;43.55;;;27.42;;
76714;SDS011;65644;44.990;20.288;2023-02-21T17:40:05;55.28;;;32.45;;